sensor_id;sensor_type;location;lat;lon;timestamp;temperature;humidity
71254;HTU21D;59019;47.638;18.966;2024-01-30T00:01:51;-1.60;99.63
71254;HTU21D;59019;47.638;18.966;2024-01-30T00:04:18;-1.56;100.12
71254;HTU21D;59019;47.638;18.966;2024-01-30T00:06:44;-1.55;100.40
71254;HTU21D;59019;47.638;18.966;2024-01-30T00:09:11;-1.61;100.50
71254;HTU21D;59019;47.638;18.966;2024-01-30T00:11:37;-1.61;100.41
71254;HTU21D;59019;47.638;18.966;2024-01-30T00:14:04;-1.61;100.58
71254;HTU21D;59019;47.638;18.966;2024-01-30T00:16:30;-1.65;100.79
71254;HTU21D;59019;47.638;18.966;2024-01-30T00:18:56;-1.75;100.19
71254;HTU21D;59019;47.638;18.966;2024-01-30T00:21:23;-1.69;100.55
71254;HTU21D;59019;47.638;18.966;2024-01-30T00:23:49;-1.69;100.01
71254;HTU21D;59019;47.638;18.966;2024-01-30T00:26:16;-1.70;99.19
71254;HTU21D;59019;47.638;18.966;2024-01-30T00:28:42;-1.72;98.75
71254;HTU21D;59019;47.638;18.966;2024-01-30T00:31:09;-1.72;98.66
71254;HTU21D;59019;47.638;18.966;2024-01-30T00:33:41;-1.77;97.87
71254;HTU21D;59019;47.638;18.966;2024-01-30T00:36:08;-1.86;98.04
71254;HTU21D;59019;47.638;18.966;2024-01-30T00:38:35;-1.82;98.41
71254;HTU21D;59019;47.638;18.966;2024-01-30T00:41:01;-1.80;98.04
71254;HTU21D;59019;47.638;18.966;2024-01-30T00:43:28;-1.84;97.86
71254;HTU21D;59019;47.638;18.966;2024-01-30T00:45:54;-1.77;99.45
71254;HTU21D;59019;47.638;18.966;2024-01-30T00:48:21;-1.73;101.06
71254;HTU21D;59019;47.638;18.966;2024-01-30T00:50:47;-1.64;102.54
71254;HTU21D;59019;47.638;18.966;2024-01-30T00:53:13;-1.63;103.39
71254;HTU21D;59019;47.638;18.966;2024-01-30T00:55:40;-1.63;103.30
71254;HTU21D;59019;47.638;18.966;2024-01-30T00:58:06;-1.67;102.15
71254;HTU21D;59019;47.638;18.966;2024-01-30T01:00:32;-1.73;101.12
71254;HTU21D;59019;47.638;18.966;2024-01-30T01:02:59;-1.79;100.70
71254;HTU21D;59019;47.638;18.966;2024-01-30T01:05:25;-1.79;99.67
71254;HTU21D;59019;47.638;18.966;2024-01-30T01:07:51;-1.77;99.31
71254;HTU21D;59019;47.638;18.966;2024-01-30T01:10:17;-1.85;98.90
71254;HTU21D;59019;47.638;18.966;2024-01-30T01:12:44;-1.85;98.72
71254;HTU21D;59019;47.638;18.966;2024-01-30T01:15:10;-1.89;98.42
71254;HTU21D;59019;47.638;18.966;2024-01-30T01:17:37;-1.97;97.56
71254;HTU21D;59019;47.638;18.966;2024-01-30T01:20:06;-2.04;98.03
71254;HTU21D;59019;47.638;18.966;2024-01-30T01:22:38;-2.03;97.87
71254;HTU21D;59019;47.638;18.966;2024-01-30T01:25:05;-2.04;97.90
71254;HTU21D;59019;47.638;18.966;2024-01-30T01:27:33;-2.05;98.18
71254;HTU21D;59019;47.638;18.966;2024-01-30T01:30:04;-2.02;98.95
71254;HTU21D;59019;47.638;18.966;2024-01-30T01:32:33;-2.07;99.22
71254;HTU21D;59019;47.638;18.966;2024-01-30T01:35:00;-2.02;99.61
71254;HTU21D;59019;47.638;18.966;2024-01-30T01:37:27;-2.01;99.85
71254;HTU21D;59019;47.638;18.966;2024-01-30T01:39:54;-2.01;99.65
71254;HTU21D;59019;47.638;18.966;2024-01-30T01:42:20;-2.04;99.90
71254;HTU21D;59019;47.638;18.966;2024-01-30T01:44:46;-2.05;100.00
71254;HTU21D;59019;47.638;18.966;2024-01-30T01:47:13;-2.10;99.77
71254;HTU21D;59019;47.638;18.966;2024-01-30T01:49:40;-2.13;99.83
71254;HTU21D;59019;47.638;18.966;2024-01-30T01:52:06;-2.10;99.58
71254;HTU21D;59019;47.638;18.966;2024-01-30T01:54:33;-2.14;98.88
71254;HTU21D;59019;47.638;18.966;2024-01-30T01:57:00;-2.12;98.00
71254;HTU21D;59019;47.638;18.966;2024-01-30T01:59:26;-2.18;97.77
71254;HTU21D;59019;47.638;18.966;2024-01-30T02:01:54;-2.21;97.98
71254;HTU21D;59019;47.638;18.966;2024-01-30T02:04:21;-2.17;99.46
71254;HTU21D;59019;47.638;18.966;2024-01-30T02:06:47;-2.14;100.48
71254;HTU21D;59019;47.638;18.966;2024-01-30T02:09:17;-2.09;101.17
71254;HTU21D;59019;47.638;18.966;2024-01-30T02:11:44;-2.01;102.19
71254;HTU21D;59019;47.638;18.966;2024-01-30T02:14:11;-2.00;103.04
71254;HTU21D;59019;47.638;18.966;2024-01-30T02:16:37;-1.94;102.28
71254;HTU21D;59019;47.638;18.966;2024-01-30T02:19:03;-2.03;99.76
71254;HTU21D;59019;47.638;18.966;2024-01-30T02:21:31;-2.12;98.51
71254;HTU21D;59019;47.638;18.966;2024-01-30T02:24:01;-2.21;97.73
71254;HTU21D;59019;47.638;18.966;2024-01-30T02:26:28;-2.18;96.86
71254;HTU21D;59019;47.638;18.966;2024-01-30T02:28:54;-2.20;96.09
71254;HTU21D;59019;47.638;18.966;2024-01-30T02:31:21;-2.23;95.89
71254;HTU21D;59019;47.638;18.966;2024-01-30T02:33:47;-2.28;96.08
71254;HTU21D;59019;47.638;18.966;2024-01-30T02:36:14;-2.28;96.70
71254;HTU21D;59019;47.638;18.966;2024-01-30T02:38:41;-2.36;97.38
71254;HTU21D;59019;47.638;18.966;2024-01-30T02:41:08;-2.42;97.69
71254;HTU21D;59019;47.638;18.966;2024-01-30T02:43:34;-2.45;97.71
71254;HTU21D;59019;47.638;18.966;2024-01-30T02:46:00;-2.44;97.73
71254;HTU21D;59019;47.638;18.966;2024-01-30T02:48:27;-2.50;97.03
71254;HTU21D;59019;47.638;18.966;2024-01-30T02:50:53;-2.48;96.98
71254;HTU21D;59019;47.638;18.966;2024-01-30T02:53:19;-2.47;96.75
71254;HTU21D;59019;47.638;18.966;2024-01-30T02:55:46;-2.51;97.00
71254;HTU21D;59019;47.638;18.966;2024-01-30T02:58:12;-2.50;97.72
71254;HTU21D;59019;47.638;18.966;2024-01-30T03:00:38;-2.54;98.39
71254;HTU21D;59019;47.638;18.966;2024-01-30T03:03:05;-2.62;98.80
71254;HTU21D;59019;47.638;18.966;2024-01-30T03:05:32;-2.61;99.05
71254;HTU21D;59019;47.638;18.966;2024-01-30T03:07:58;-2.62;98.80
71254;HTU21D;59019;47.638;18.966;2024-01-30T03:10:25;-2.62;98.52
71254;HTU21D;59019;47.638;18.966;2024-01-30T03:12:52;-2.60;98.35
71254;HTU21D;59019;47.638;18.966;2024-01-30T03:15:18;-2.56;98.42
71254;HTU21D;59019;47.638;18.966;2024-01-30T03:17:45;-2.52;99.61
71254;HTU21D;59019;47.638;18.966;2024-01-30T03:20:11;-2.44;101.37
71254;HTU21D;59019;47.638;18.966;2024-01-30T03:22:37;-2.37;102.96
71254;HTU21D;59019;47.638;18.966;2024-01-30T03:25:05;-2.22;104.67
71254;HTU21D;59019;47.638;18.966;2024-01-30T03:27:32;-2.15;105.35
71254;HTU21D;59019;47.638;18.966;2024-01-30T03:29:58;-2.16;104.43
71254;HTU21D;59019;47.638;18.966;2024-01-30T03:32:24;-2.24;103.02
71254;HTU21D;59019;47.638;18.966;2024-01-30T03:34:51;-2.27;101.46
71254;HTU21D;59019;47.638;18.966;2024-01-30T03:37:17;-2.33;100.38
71254;HTU21D;59019;47.638;18.966;2024-01-30T03:39:43;-2.36;99.90
71254;HTU21D;59019;47.638;18.966;2024-01-30T03:42:09;-2.39;99.96
71254;HTU21D;59019;47.638;18.966;2024-01-30T03:44:36;-2.41;99.58
71254;HTU21D;59019;47.638;18.966;2024-01-30T03:47:03;-2.47;99.30
71254;HTU21D;59019;47.638;18.966;2024-01-30T03:49:29;-2.50;99.69
71254;HTU21D;59019;47.638;18.966;2024-01-30T03:51:55;-2.47;99.59
71254;HTU21D;59019;47.638;18.966;2024-01-30T03:54:22;-2.48;99.42
71254;HTU21D;59019;47.638;18.966;2024-01-30T03:56:48;-2.56;98.77
71254;HTU21D;59019;47.638;18.966;2024-01-30T03:59:15;-2.56;98.62
71254;HTU21D;59019;47.638;18.966;2024-01-30T04:01:42;-2.64;98.10
71254;HTU21D;59019;47.638;18.966;2024-01-30T04:04:12;-2.63;98.11
71254;HTU21D;59019;47.638;18.966;2024-01-30T04:06:39;-2.60;98.34
71254;HTU21D;59019;47.638;18.966;2024-01-30T04:09:05;-2.59;98.50
71254;HTU21D;59019;47.638;18.966;2024-01-30T04:11:32;-2.64;98.10
71254;HTU21D;59019;47.638;18.966;2024-01-30T04:13:58;-2.61;98.03
71254;HTU21D;59019;47.638;18.966;2024-01-30T04:16:25;-2.71;97.15
71254;HTU21D;59019;47.638;18.966;2024-01-30T04:18:52;-2.71;97.14
71254;HTU21D;59019;47.638;18.966;2024-01-30T04:21:21;-2.77;97.00
71254;HTU21D;59019;47.638;18.966;2024-01-30T04:23:48;-2.76;97.02
71254;HTU21D;59019;47.638;18.966;2024-01-30T04:26:14;-2.76;97.13
71254;HTU21D;59019;47.638;18.966;2024-01-30T04:28:44;-2.72;98.63
71254;HTU21D;59019;47.638;18.966;2024-01-30T04:31:12;-2.66;100.25
71254;HTU21D;59019;47.638;18.966;2024-01-30T04:33:38;-2.58;101.72
71254;HTU21D;59019;47.638;18.966;2024-01-30T04:36:08;-2.54;102.47
71254;HTU21D;59019;47.638;18.966;2024-01-30T04:38:36;-2.51;103.31
71254;HTU21D;59019;47.638;18.966;2024-01-30T04:41:03;-2.45;103.70
71254;HTU21D;59019;47.638;18.966;2024-01-30T04:43:30;-2.46;102.29
71254;HTU21D;59019;47.638;18.966;2024-01-30T04:45:56;-2.50;101.30
71254;HTU21D;59019;47.638;18.966;2024-01-30T04:48:23;-2.48;100.64
71254;HTU21D;59019;47.638;18.966;2024-01-30T04:50:49;-2.54;100.14
71254;HTU21D;59019;47.638;18.966;2024-01-30T04:53:16;-2.57;99.59
71254;HTU21D;59019;47.638;18.966;2024-01-30T04:55:42;-2.61;99.32
71254;HTU21D;59019;47.638;18.966;2024-01-30T04:58:08;-2.64;98.49
71254;HTU21D;59019;47.638;18.966;2024-01-30T05:00:35;-2.71;97.29
71254;HTU21D;59019;47.638;18.966;2024-01-30T05:03:01;-2.79;97.07
71254;HTU21D;59019;47.638;18.966;2024-01-30T05:05:28;-2.80;97.00
71254;HTU21D;59019;47.638;18.966;2024-01-30T05:07:55;-2.84;97.16
71254;HTU21D;59019;47.638;18.966;2024-01-30T05:10:21;-2.81;97.00
71254;HTU21D;59019;47.638;18.966;2024-01-30T05:12:48;-2.86;97.40
71254;HTU21D;59019;47.638;18.966;2024-01-30T05:15:14;-2.93;97.71
71254;HTU21D;59019;47.638;18.966;2024-01-30T05:17:44;-2.90;98.20
71254;HTU21D;59019;47.638;18.966;2024-01-30T05:20:10;-2.90;98.19
71254;HTU21D;59019;47.638;18.966;2024-01-30T05:22:37;-2.90;98.16
71254;HTU21D;59019;47.638;18.966;2024-01-30T05:25:05;-2.86;98.07
71254;HTU21D;59019;47.638;18.966;2024-01-30T05:27:32;-2.81;98.13
71254;HTU21D;59019;47.638;18.966;2024-01-30T05:29:59;-2.86;98.49
71254;HTU21D;59019;47.638;18.966;2024-01-30T05:32:25;-2.84;98.96
71254;HTU21D;59019;47.638;18.966;2024-01-30T05:34:51;-2.84;99.48
71254;HTU21D;59019;47.638;18.966;2024-01-30T05:37:18;-2.79;100.26
71254;HTU21D;59019;47.638;18.966;2024-01-30T05:39:44;-2.80;101.83
71254;HTU21D;59019;47.638;18.966;2024-01-30T05:42:11;-2.68;103.40
71254;HTU21D;59019;47.638;18.966;2024-01-30T05:44:37;-2.62;104.69
71254;HTU21D;59019;47.638;18.966;2024-01-30T05:47:03;-2.54;104.67
71254;HTU21D;59019;47.638;18.966;2024-01-30T05:49:30;-2.48;104.69
71254;HTU21D;59019;47.638;18.966;2024-01-30T05:52:03;-2.48;104.53
71254;HTU21D;59019;47.638;18.966;2024-01-30T05:54:29;-2.51;102.60
71254;HTU21D;59019;47.638;18.966;2024-01-30T05:56:56;-2.50;102.28
71254;HTU21D;59019;47.638;18.966;2024-01-30T05:59:22;-2.52;101.35
71254;HTU21D;59019;47.638;18.966;2024-01-30T06:01:49;-2.51;100.77
71254;HTU21D;59019;47.638;18.966;2024-01-30T06:04:15;-2.54;100.44
71254;HTU21D;59019;47.638;18.966;2024-01-30T06:06:41;-2.50;100.30
71254;HTU21D;59019;47.638;18.966;2024-01-30T06:09:07;-2.50;99.76
71254;HTU21D;59019;47.638;18.966;2024-01-30T06:11:38;-2.61;99.21
71254;HTU21D;59019;47.638;18.966;2024-01-30T06:14:05;-2.64;99.08
71254;HTU21D;59019;47.638;18.966;2024-01-30T06:16:31;-2.69;98.80
71254;HTU21D;59019;47.638;18.966;2024-01-30T06:18:57;-2.68;98.37
71254;HTU21D;59019;47.638;18.966;2024-01-30T06:21:25;-2.64;97.19
71254;HTU21D;59019;47.638;18.966;2024-01-30T06:23:51;-2.66;96.68
71254;HTU21D;59019;47.638;18.966;2024-01-30T06:26:17;-2.64;97.88
71254;HTU21D;59019;47.638;18.966;2024-01-30T06:28:44;-2.66;99.49
71254;HTU21D;59019;47.638;18.966;2024-01-30T06:31:10;-2.61;100.14
71254;HTU21D;59019;47.638;18.966;2024-01-30T06:33:36;-2.54;100.52
71254;HTU21D;59019;47.638;18.966;2024-01-30T06:36:04;-2.52;100.99
71254;HTU21D;59019;47.638;18.966;2024-01-30T06:38:30;-2.54;100.58
71254;HTU21D;59019;47.638;18.966;2024-01-30T06:40:56;-2.58;98.87
71254;HTU21D;59019;47.638;18.966;2024-01-30T06:43:22;-2.61;97.78
71254;HTU21D;59019;47.638;18.966;2024-01-30T06:45:49;-2.61;97.73
71254;HTU21D;59019;47.638;18.966;2024-01-30T06:48:16;-2.59;98.09
71254;HTU21D;59019;47.638;18.966;2024-01-30T06:50:43;-2.56;98.16
71254;HTU21D;59019;47.638;18.966;2024-01-30T06:53:09;-2.48;99.05
71254;HTU21D;59019;47.638;18.966;2024-01-30T06:55:35;-2.43;99.38
71254;HTU21D;59019;47.638;18.966;2024-01-30T06:58:02;-2.39;99.94
71254;HTU21D;59019;47.638;18.966;2024-01-30T07:00:29;-2.36;100.20
71254;HTU21D;59019;47.638;18.966;2024-01-30T07:02:55;-2.38;100.06
71254;HTU21D;59019;47.638;18.966;2024-01-30T07:05:25;-2.35;100.05
71254;HTU21D;59019;47.638;18.966;2024-01-30T07:07:52;-2.33;99.67
71254;HTU21D;59019;47.638;18.966;2024-01-30T07:10:18;-2.36;98.38
71254;HTU21D;59019;47.638;18.966;2024-01-30T07:12:44;-2.36;98.22
71254;HTU21D;59019;47.638;18.966;2024-01-30T07:15:11;-2.36;98.58
71254;HTU21D;59019;47.638;18.966;2024-01-30T07:17:37;-2.32;99.02
71254;HTU21D;59019;47.638;18.966;2024-01-30T07:20:06;-2.21;100.02
71254;HTU21D;59019;47.638;18.966;2024-01-30T07:22:34;-2.05;102.45
71254;HTU21D;59019;47.638;18.966;2024-01-30T07:25:01;-1.99;103.91
71254;HTU21D;59019;47.638;18.966;2024-01-30T07:27:28;-1.92;103.96
71254;HTU21D;59019;47.638;18.966;2024-01-30T07:29:54;-1.89;103.45
71254;HTU21D;59019;47.638;18.966;2024-01-30T07:32:39;-1.87;102.61
71254;HTU21D;59019;47.638;18.966;2024-01-30T07:35:06;-1.85;102.25
71254;HTU21D;59019;47.638;18.966;2024-01-30T07:37:32;-1.75;102.53
71254;HTU21D;59019;47.638;18.966;2024-01-30T07:40:02;-1.73;102.06
71254;HTU21D;59019;47.638;18.966;2024-01-30T07:42:29;-1.64;102.31
71254;HTU21D;59019;47.638;18.966;2024-01-30T07:44:55;-1.57;102.81
71254;HTU21D;59019;47.638;18.966;2024-01-30T07:47:22;-1.42;105.21
71254;HTU21D;59019;47.638;18.966;2024-01-30T07:49:48;-0.90;112.33
71254;HTU21D;59019;47.638;18.966;2024-01-30T07:52:15;-0.76;110.82
71254;HTU21D;59019;47.638;18.966;2024-01-30T07:58:07;0.28;116.27
71254;HTU21D;59019;47.638;18.966;2024-01-30T08:00:33;0.59;115.12
71254;HTU21D;59019;47.638;18.966;2024-01-30T08:03:02;0.80;112.69
71254;HTU21D;59019;47.638;18.966;2024-01-30T08:05:28;0.69;102.15
71254;HTU21D;59019;47.638;18.966;2024-01-30T08:07:55;0.59;97.21
71254;HTU21D;59019;47.638;18.966;2024-01-30T08:10:21;0.45;96.51
71254;HTU21D;59019;47.638;18.966;2024-01-30T08:12:47;0.39;98.48
71254;HTU21D;59019;47.638;18.966;2024-01-30T08:15:14;0.29;99.91
71254;HTU21D;59019;47.638;18.966;2024-01-30T08:17:40;0.20;100.73
71254;HTU21D;59019;47.638;18.966;2024-01-30T08:20:07;0.20;101.19
71254;HTU21D;59019;47.638;18.966;2024-01-30T08:22:34;0.20;101.05
71254;HTU21D;59019;47.638;18.966;2024-01-30T08:25:00;0.25;102.05
71254;HTU21D;59019;47.638;18.966;2024-01-30T08:27:27;0.23;101.48
71254;HTU21D;59019;47.638;18.966;2024-01-30T08:29:54;0.28;101.27
71254;HTU21D;59019;47.638;18.966;2024-01-30T08:32:20;0.39;101.96
71254;HTU21D;59019;47.638;18.966;2024-01-30T08:34:46;0.51;102.83
71254;HTU21D;59019;47.638;18.966;2024-01-30T08:37:12;0.58;102.77
71254;HTU21D;59019;47.638;18.966;2024-01-30T08:39:43;0.58;102.04
71254;HTU21D;59019;47.638;18.966;2024-01-30T08:42:09;0.67;101.65
71254;HTU21D;59019;47.638;18.966;2024-01-30T08:44:36;0.87;101.73
71254;HTU21D;59019;47.638;18.966;2024-01-30T08:47:03;0.88;101.16
71254;HTU21D;59019;47.638;18.966;2024-01-30T08:49:30;1.02;101.29
71254;HTU21D;59019;47.638;18.966;2024-01-30T08:51:56;1.10;101.07
71254;HTU21D;59019;47.638;18.966;2024-01-30T08:54:23;1.14;100.96
71254;HTU21D;59019;47.638;18.966;2024-01-30T08:56:49;1.20;101.26
71254;HTU21D;59019;47.638;18.966;2024-01-30T08:59:16;1.27;101.26
71254;HTU21D;59019;47.638;18.966;2024-01-30T09:01:42;1.34;101.55
71254;HTU21D;59019;47.638;18.966;2024-01-30T09:04:08;1.51;103.49
71254;HTU21D;59019;47.638;18.966;2024-01-30T09:06:35;1.64;104.08
71254;HTU21D;59019;47.638;18.966;2024-01-30T09:09:01;1.71;103.04
71254;HTU21D;59019;47.638;18.966;2024-01-30T09:11:28;1.86;101.95
71254;HTU21D;59019;47.638;18.966;2024-01-30T09:13:55;1.86;100.84
71254;HTU21D;59019;47.638;18.966;2024-01-30T09:16:21;2.03;100.74
71254;HTU21D;59019;47.638;18.966;2024-01-30T09:18:48;2.14;100.25
71254;HTU21D;59019;47.638;18.966;2024-01-30T09:21:14;2.21;100.73
71254;HTU21D;59019;47.638;18.966;2024-01-30T09:23:41;2.29;100.36
71254;HTU21D;59019;47.638;18.966;2024-01-30T09:26:07;2.41;99.99
71254;HTU21D;59019;47.638;18.966;2024-01-30T09:28:35;2.60;99.65
71254;HTU21D;59019;47.638;18.966;2024-01-30T09:31:01;2.82;99.86
71254;HTU21D;59019;47.638;18.966;2024-01-30T09:33:28;2.97;99.40
71254;HTU21D;59019;47.638;18.966;2024-01-30T09:35:54;3.13;98.60
71254;HTU21D;59019;47.638;18.966;2024-01-30T09:38:21;3.34;97.81
71254;HTU21D;59019;47.638;18.966;2024-01-30T09:40:54;3.48;97.01
71254;HTU21D;59019;47.638;18.966;2024-01-30T09:43:23;3.60;95.91
71254;HTU21D;59019;47.638;18.966;2024-01-30T09:45:53;3.73;95.66
71254;HTU21D;59019;47.638;18.966;2024-01-30T09:48:19;3.84;95.17
71254;HTU21D;59019;47.638;18.966;2024-01-30T09:50:46;4.03;95.67
71254;HTU21D;59019;47.638;18.966;2024-01-30T09:53:13;4.39;96.62
71254;HTU21D;59019;47.638;18.966;2024-01-30T09:55:42;4.72;96.69
71254;HTU21D;59019;47.638;18.966;2024-01-30T09:58:09;4.97;95.11
71254;HTU21D;59019;47.638;18.966;2024-01-30T10:00:35;5.13;93.72
71254;HTU21D;59019;47.638;18.966;2024-01-30T10:03:02;5.39;93.36
71254;HTU21D;59019;47.638;18.966;2024-01-30T10:05:31;5.53;91.65
71254;HTU21D;59019;47.638;18.966;2024-01-30T10:07:59;5.76;89.60
71254;HTU21D;59019;47.638;18.966;2024-01-30T10:10:25;5.87;89.47
71254;HTU21D;59019;47.638;18.966;2024-01-30T10:12:51;6.00;89.32
71254;HTU21D;59019;47.638;18.966;2024-01-30T10:15:17;6.06;89.27
71254;HTU21D;59019;47.638;18.966;2024-01-30T10:17:45;6.14;89.20
71254;HTU21D;59019;47.638;18.966;2024-01-30T10:20:15;6.28;89.54
71254;HTU21D;59019;47.638;18.966;2024-01-30T10:22:41;6.24;88.42
71254;HTU21D;59019;47.638;18.966;2024-01-30T10:25:11;6.08;87.84
71254;HTU21D;59019;47.638;18.966;2024-01-30T10:27:39;5.99;87.92
71254;HTU21D;59019;47.638;18.966;2024-01-30T10:30:10;5.85;88.18
71254;HTU21D;59019;47.638;18.966;2024-01-30T10:32:36;5.81;88.55
71254;HTU21D;59019;47.638;18.966;2024-01-30T10:35:03;5.98;89.34
71254;HTU21D;59019;47.638;18.966;2024-01-30T10:37:30;6.28;89.89
71254;HTU21D;59019;47.638;18.966;2024-01-30T10:40:02;6.38;87.64
71254;HTU21D;59019;47.638;18.966;2024-01-30T10:42:32;6.46;87.39
71254;HTU21D;59019;47.638;18.966;2024-01-30T10:45:08;6.74;87.12
71254;HTU21D;59019;47.638;18.966;2024-01-30T10:47:35;6.91;85.92
71254;HTU21D;59019;47.638;18.966;2024-01-30T10:50:26;7.07;85.42
71254;HTU21D;59019;47.638;18.966;2024-01-30T10:52:55;7.16;85.11
71254;HTU21D;59019;47.638;18.966;2024-01-30T10:55:22;7.05;84.32
71254;HTU21D;59019;47.638;18.966;2024-01-30T10:57:49;6.97;84.56
71254;HTU21D;59019;47.638;18.966;2024-01-30T11:00:16;7.03;83.90
71254;HTU21D;59019;47.638;18.966;2024-01-30T11:02:46;7.12;84.13
71254;HTU21D;59019;47.638;18.966;2024-01-30T11:05:23;7.37;84.48
71254;HTU21D;59019;47.638;18.966;2024-01-30T11:07:50;7.60;84.90
71254;HTU21D;59019;47.638;18.966;2024-01-30T11:10:17;7.69;82.96
71254;HTU21D;59019;47.638;18.966;2024-01-30T11:12:43;7.60;83.87
71254;HTU21D;59019;47.638;18.966;2024-01-30T11:15:15;7.68;84.01
71254;HTU21D;59019;47.638;18.966;2024-01-30T11:17:50;8.08;83.71
71254;HTU21D;59019;47.638;18.966;2024-01-30T11:20:27;8.26;81.69
71254;HTU21D;59019;47.638;18.966;2024-01-30T11:22:59;8.42;82.70
71254;HTU21D;59019;47.638;18.966;2024-01-30T11:25:28;8.60;81.64
71254;HTU21D;59019;47.638;18.966;2024-01-30T11:27:55;8.81;81.78
71254;HTU21D;59019;47.638;18.966;2024-01-30T11:30:28;9.16;81.32
71254;HTU21D;59019;47.638;18.966;2024-01-30T11:33:06;9.11;78.08
71254;HTU21D;59019;47.638;18.966;2024-01-30T11:35:46;9.29;78.98
71254;HTU21D;59019;47.638;18.966;2024-01-30T11:38:15;9.40;78.50
71254;HTU21D;59019;47.638;18.966;2024-01-30T11:40:42;9.35;77.10
71254;HTU21D;59019;47.638;18.966;2024-01-30T11:43:09;8.60;76.53
71254;HTU21D;59019;47.638;18.966;2024-01-30T11:45:36;7.82;77.69
71254;HTU21D;59019;47.638;18.966;2024-01-30T11:48:03;8.06;79.60
71254;HTU21D;59019;47.638;18.966;2024-01-30T11:50:30;7.76;79.24
71254;HTU21D;59019;47.638;18.966;2024-01-30T11:53:00;8.23;79.90
71254;HTU21D;59019;47.638;18.966;2024-01-30T11:55:26;8.59;79.02
71254;HTU21D;59019;47.638;18.966;2024-01-30T11:57:57;8.82;77.95
71254;HTU21D;59019;47.638;18.966;2024-01-30T12:00:27;9.22;79.21
71254;HTU21D;59019;47.638;18.966;2024-01-30T12:02:59;8.07;76.79
71254;HTU21D;59019;47.638;18.966;2024-01-30T12:05:27;8.43;77.93
71254;HTU21D;59019;47.638;18.966;2024-01-30T12:07:53;8.67;78.06
71254;HTU21D;59019;47.638;18.966;2024-01-30T12:10:19;8.38;77.24
71254;HTU21D;59019;47.638;18.966;2024-01-30T12:12:46;8.45;76.92
71254;HTU21D;59019;47.638;18.966;2024-01-30T12:15:13;8.83;77.53
71254;HTU21D;59019;47.638;18.966;2024-01-30T12:17:40;8.77;78.02
71254;HTU21D;59019;47.638;18.966;2024-01-30T12:20:10;8.89;78.02
71254;HTU21D;59019;47.638;18.966;2024-01-30T12:22:41;9.52;77.72
71254;HTU21D;59019;47.638;18.966;2024-01-30T12:25:09;9.69;75.15
71254;HTU21D;59019;47.638;18.966;2024-01-30T12:27:40;9.69;73.99
71254;HTU21D;59019;47.638;18.966;2024-01-30T12:30:09;9.79;73.84
71254;HTU21D;59019;47.638;18.966;2024-01-30T12:32:39;9.77;73.92
71254;HTU21D;59019;47.638;18.966;2024-01-30T12:35:12;10.03;74.51
71254;HTU21D;59019;47.638;18.966;2024-01-30T12:37:39;9.81;73.80
71254;HTU21D;59019;47.638;18.966;2024-01-30T12:40:26;9.42;74.04
71254;HTU21D;59019;47.638;18.966;2024-01-30T12:42:52;9.70;74.48
71254;HTU21D;59019;47.638;18.966;2024-01-30T12:45:19;10.01;74.64
71254;HTU21D;59019;47.638;18.966;2024-01-30T12:47:48;10.27;73.60
71254;HTU21D;59019;47.638;18.966;2024-01-30T12:50:14;10.46;72.39
71254;HTU21D;59019;47.638;18.966;2024-01-30T12:52:43;10.54;71.19
71254;HTU21D;59019;47.638;18.966;2024-01-30T12:55:09;10.15;70.31
71254;HTU21D;59019;47.638;18.966;2024-01-30T12:57:37;10.14;71.71
71254;HTU21D;59019;47.638;18.966;2024-01-30T13:00:05;10.14;72.47
71254;HTU21D;59019;47.638;18.966;2024-01-30T13:02:34;10.41;73.50
71254;HTU21D;59019;47.638;18.966;2024-01-30T13:05:03;10.28;70.79
71254;HTU21D;59019;47.638;18.966;2024-01-30T13:07:29;9.93;71.03
71254;HTU21D;59019;47.638;18.966;2024-01-30T13:09:56;9.17;70.61
71254;HTU21D;59019;47.638;18.966;2024-01-30T13:12:22;9.41;71.90
71254;HTU21D;59019;47.638;18.966;2024-01-30T13:14:52;9.04;71.69
71254;HTU21D;59019;47.638;18.966;2024-01-30T13:17:19;8.29;73.25
71254;HTU21D;59019;47.638;18.966;2024-01-30T13:19:45;8.62;74.15
71254;HTU21D;59019;47.638;18.966;2024-01-30T13:22:11;8.94;74.33
71254;HTU21D;59019;47.638;18.966;2024-01-30T13:24:38;9.04;73.65
71254;HTU21D;59019;47.638;18.966;2024-01-30T13:27:05;9.00;73.39
71254;HTU21D;59019;47.638;18.966;2024-01-30T13:29:32;9.19;73.36
71254;HTU21D;59019;47.638;18.966;2024-01-30T13:31:58;9.45;73.09
71254;HTU21D;59019;47.638;18.966;2024-01-30T13:34:24;9.61;72.32
71254;HTU21D;59019;47.638;18.966;2024-01-30T13:36:51;9.67;72.38
71254;HTU21D;59019;47.638;18.966;2024-01-30T13:39:17;9.62;71.43
71254;HTU21D;59019;47.638;18.966;2024-01-30T13:41:43;9.34;71.92
71254;HTU21D;59019;47.638;18.966;2024-01-30T13:44:10;9.23;74.33
71254;HTU21D;59019;47.638;18.966;2024-01-30T13:46:36;9.21;72.61
71254;HTU21D;59019;47.638;18.966;2024-01-30T13:49:04;8.76;73.02
71254;HTU21D;59019;47.638;18.966;2024-01-30T13:51:30;8.52;72.54
71254;HTU21D;59019;47.638;18.966;2024-01-30T13:54:00;8.32;74.48
71254;HTU21D;59019;47.638;18.966;2024-01-30T13:56:26;8.01;75.00
71254;HTU21D;59019;47.638;18.966;2024-01-30T13:58:53;7.52;74.95
71254;HTU21D;59019;47.638;18.966;2024-01-30T14:01:21;7.09;75.46
71254;HTU21D;59019;47.638;18.966;2024-01-30T14:03:47;6.78;75.95
71254;HTU21D;59019;47.638;18.966;2024-01-30T14:06:14;6.58;77.02
71254;HTU21D;59019;47.638;18.966;2024-01-30T14:08:40;6.41;77.82
71254;HTU21D;59019;47.638;18.966;2024-01-30T14:11:06;6.17;78.72
71254;HTU21D;59019;47.638;18.966;2024-01-30T14:13:32;5.86;79.68
71254;HTU21D;59019;47.638;18.966;2024-01-30T14:15:59;5.69;80.65
71254;HTU21D;59019;47.638;18.966;2024-01-30T14:18:29;5.54;81.10
71254;HTU21D;59019;47.638;18.966;2024-01-30T14:20:55;5.11;80.99
71254;HTU21D;59019;47.638;18.966;2024-01-30T14:23:22;4.91;82.04
71254;HTU21D;59019;47.638;18.966;2024-01-30T14:25:52;4.94;82.78
71254;HTU21D;59019;47.638;18.966;2024-01-30T14:28:18;5.15;90.02
71254;HTU21D;59019;47.638;18.966;2024-01-30T14:30:44;4.98;87.09
71254;HTU21D;59019;47.638;18.966;2024-01-30T14:33:11;4.79;85.82
71254;HTU21D;59019;47.638;18.966;2024-01-30T14:35:38;4.58;85.08
71254;HTU21D;59019;47.638;18.966;2024-01-30T14:38:05;4.57;87.12
71254;HTU21D;59019;47.638;18.966;2024-01-30T14:40:33;4.41;86.74
71254;HTU21D;59019;47.638;18.966;2024-01-30T14:42:59;4.16;86.54
71254;HTU21D;59019;47.638;18.966;2024-01-30T14:45:25;4.02;86.04
71254;HTU21D;59019;47.638;18.966;2024-01-30T14:47:52;3.88;85.89
71254;HTU21D;59019;47.638;18.966;2024-01-30T14:50:18;3.78;85.48
71254;HTU21D;59019;47.638;18.966;2024-01-30T14:52:45;3.76;86.09
71254;HTU21D;59019;47.638;18.966;2024-01-30T14:55:11;3.47;86.90
71254;HTU21D;59019;47.638;18.966;2024-01-30T14:57:37;3.45;87.05
71254;HTU21D;59019;47.638;18.966;2024-01-30T15:00:05;3.40;86.75
71254;HTU21D;59019;47.638;18.966;2024-01-30T15:02:32;3.20;86.80
71254;HTU21D;59019;47.638;18.966;2024-01-30T15:04:58;2.93;87.41
71254;HTU21D;59019;47.638;18.966;2024-01-30T15:07:25;3.03;87.53
71254;HTU21D;59019;47.638;18.966;2024-01-30T15:09:51;3.00;87.70